sensor_id;sensor_type;location;lat;lon;timestamp;temperature;humidity
2282;DHT22;27486;48.77806476;9.16920056;2022-10-26T00:00:50;16.30;96.50
2282;DHT22;27486;48.77806476;9.16920056;2022-10-26T00:03:35;16.30;96.40
2282;DHT22;27486;48.77806476;9.16920056;2022-10-26T00:06:21;16.30;96.30
2282;DHT22;27486;48.77806476;9.16920056;2022-10-26T00:09:07;16.30;96.50
2282;DHT22;27486;48.77806476;9.16920056;2022-10-26T00:11:51;16.30;96.50
2282;DHT22;27486;48.77806476;9.16920056;2022-10-26T00:14:36;16.30;96.50
2282;DHT22;27486;48.77806476;9.16920056;2022-10-26T00:17:20;16.40;96.60
2282;DHT22;27486;48.77806476;9.16920056;2022-10-26T00:20:04;16.40;96.30
2282;DHT22;27486;48.77806476;9.16920056;2022-10-26T00:22:49;16.40;96.40
2282;DHT22;27486;48.77806476;9.16920056;2022-10-26T00:25:33;16.40;96.40
2282;DHT22;27486;48.77806476;9.16920056;2022-10-26T00:28:17;16.50;96.10
2282;DHT22;27486;48.77806476;9.16920056;2022-10-26T00:31:06;16.60;96.20
2282;DHT22;27486;48.77806476;9.16920056;2022-10-26T00:33:54;16.50;96.10
2282;DHT22;27486;48.77806476;9.16920056;2022-10-26T00:36:38;16.60;96.00
2282;DHT22;27486;48.77806476;9.16920056;2022-10-26T00:39:23;16.60;96.10
2282;DHT22;27486;48.77806476;9.16920056;2022-10-26T00:42:13;16.60;96.00
2282;DHT22;27486;48.77806476;9.16920056;2022-10-26T00:45:18;16.60;96.20
2282;DHT22;27486;48.77806476;9.16920056;2022-10-26T00:48:10;16.60;96.10
2282;DHT22;27486;48.77806476;9.16920056;2022-10-26T00:50:58;16.70;96.00
2282;DHT22;27486;48.77806476;9.16920056;2022-10-26T00:53:43;16.70;96.00
2282;DHT22;27486;48.77806476;9.16920056;2022-10-26T00:56:29;16.80;96.00
2282;DHT22;27486;48.77806476;9.16920056;2022-10-26T00:59:15;16.80;96.00
2282;DHT22;27486;48.77806476;9.16920056;2022-10-26T01:02:00;16.90;95.90
2282;DHT22;27486;48.77806476;9.16920056;2022-10-26T01:04:45;16.90;95.80
2282;DHT22;27486;48.77806476;9.16920056;2022-10-26T01:07:29;16.90;95.80
2282;DHT22;27486;48.77806476;9.16920056;2022-10-26T01:10:13;16.90;95.60
2282;DHT22;27486;48.77806476;9.16920056;2022-10-26T01:12:58;16.90;95.40
2282;DHT22;27486;48.77806476;9.16920056;2022-10-26T01:16:19;16.90;95.40
2282;DHT22;27486;48.77806476;9.16920056;2022-10-26T01:22:39;16.90;95.70
2282;DHT22;27486;48.77806476;9.16920056;2022-10-26T01:25:51;16.90;95.80
2282;DHT22;27486;48.77806476;9.16920056;2022-10-26T01:28:57;16.90;95.80
2282;DHT22;27486;48.77806476;9.16920056;2022-10-26T01:35:09;16.90;95.80
2282;DHT22;27486;48.77806476;9.16920056;2022-10-26T01:38:10;16.80;95.80
2282;DHT22;27486;48.77806476;9.16920056;2022-10-26T01:41:18;16.80;96.00
2282;DHT22;27486;48.77806476;9.16920056;2022-10-26T01:44:12;16.70;96.30
2282;DHT22;27486;48.77806476;9.16920056;2022-10-26T01:46:58;16.70;96.40
2282;DHT22;27486;48.77806476;9.16920056;2022-10-26T01:49:48;16.80;96.50
2282;DHT22;27486;48.77806476;9.16920056;2022-10-26T01:52:33;16.80;96.50
2282;DHT22;27486;48.77806476;9.16920056;2022-10-26T02:04:38;16.70;97.70
2282;DHT22;27486;48.77806476;9.16920056;2022-10-26T02:19:32;16.60;98.40
2282;DHT22;27486;48.77806476;9.16920056;2022-10-26T02:22:35;16.50;98.50
2282;DHT22;27486;48.77806476;9.16920056;2022-10-26T02:25:26;16.50;98.60
2282;DHT22;27486;48.77806476;9.16920056;2022-10-26T02:28:13;16.50;98.80
2282;DHT22;27486;48.77806476;9.16920056;2022-10-26T02:31:00;16.50;99.20
2282;DHT22;27486;48.77806476;9.16920056;2022-10-26T02:33:48;16.30;99.30
2282;DHT22;27486;48.77806476;9.16920056;2022-10-26T02:36:35;16.30;99.50
2282;DHT22;27486;48.77806476;9.16920056;2022-10-26T02:39:21;16.40;99.40
2282;DHT22;27486;48.77806476;9.16920056;2022-10-26T02:42:07;16.40;99.30
2282;DHT22;27486;48.77806476;9.16920056;2022-10-26T02:45:02;16.40;99.20
2282;DHT22;27486;48.77806476;9.16920056;2022-10-26T02:47:47;16.40;99.20
2282;DHT22;27486;48.77806476;9.16920056;2022-10-26T02:51:28;16.40;99.20
2282;DHT22;27486;48.77806476;9.16920056;2022-10-26T02:54:31;16.40;99.10
2282;DHT22;27486;48.77806476;9.16920056;2022-10-26T02:57:39;16.40;99.10
2282;DHT22;27486;48.77806476;9.16920056;2022-10-26T03:00:22;16.30;99.40
2282;DHT22;27486;48.77806476;9.16920056;2022-10-26T03:03:06;16.20;99.70
2282;DHT22;27486;48.77806476;9.16920056;2022-10-26T03:05:50;16.10;99.70
2282;DHT22;27486;48.77806476;9.16920056;2022-10-26T03:08:34;16.10;99.90
2282;DHT22;27486;48.77806476;9.16920056;2022-10-26T03:11:18;16.20;99.60
2282;DHT22;27486;48.77806476;9.16920056;2022-10-26T03:14:02;16.20;99.50
2282;DHT22;27486;48.77806476;9.16920056;2022-10-26T03:16:47;16.20;99.70
2282;DHT22;27486;48.77806476;9.16920056;2022-10-26T03:19:31;16.20;99.90
2282;DHT22;27486;48.77806476;9.16920056;2022-10-26T03:22:15;16.30;99.90
2282;DHT22;27486;48.77806476;9.16920056;2022-10-26T03:24:59;16.40;99.80
2282;DHT22;27486;48.77806476;9.16920056;2022-10-26T03:27:43;16.40;99.90
2282;DHT22;27486;48.77806476;9.16920056;2022-10-26T03:30:28;16.40;99.90
2282;DHT22;27486;48.77806476;9.16920056;2022-10-26T03:33:13;16.40;99.90
2282;DHT22;27486;48.77806476;9.16920056;2022-10-26T03:35:57;16.40;99.90
2282;DHT22;27486;48.77806476;9.16920056;2022-10-26T03:38:41;16.40;99.90
2282;DHT22;27486;48.77806476;9.16920056;2022-10-26T03:41:25;16.50;99.90
2282;DHT22;27486;48.77806476;9.16920056;2022-10-26T03:44:09;16.50;99.90
2282;DHT22;27486;48.77806476;9.16920056;2022-10-26T03:46:53;16.50;99.90
2282;DHT22;27486;48.77806476;9.16920056;2022-10-26T03:49:37;16.60;99.90
2282;DHT22;27486;48.77806476;9.16920056;2022-10-26T03:52:21;16.60;99.90
2282;DHT22;27486;48.77806476;9.16920056;2022-10-26T03:55:08;16.70;99.80
2282;DHT22;27486;48.77806476;9.16920056;2022-10-26T03:57:52;16.70;99.60
2282;DHT22;27486;48.77806476;9.16920056;2022-10-26T04:00:36;16.80;99.30
2282;DHT22;27486;48.77806476;9.16920056;2022-10-26T04:03:20;16.80;99.30
2282;DHT22;27486;48.77806476;9.16920056;2022-10-26T04:06:04;16.80;99.50
2282;DHT22;27486;48.77806476;9.16920056;2022-10-26T04:08:48;16.70;99.30
2282;DHT22;27486;48.77806476;9.16920056;2022-10-26T04:11:32;16.70;99.40
2282;DHT22;27486;48.77806476;9.16920056;2022-10-26T04:14:16;16.70;99.40
2282;DHT22;27486;48.77806476;9.16920056;2022-10-26T04:17:00;16.70;99.60
2282;DHT22;27486;48.77806476;9.16920056;2022-10-26T04:19:44;16.60;99.60
2282;DHT22;27486;48.77806476;9.16920056;2022-10-26T04:22:28;16.60;99.70
2282;DHT22;27486;48.77806476;9.16920056;2022-10-26T04:25:12;16.60;99.60
2282;DHT22;27486;48.77806476;9.16920056;2022-10-26T04:27:57;16.60;99.60
2282;DHT22;27486;48.77806476;9.16920056;2022-10-26T04:30:41;16.50;99.80
2282;DHT22;27486;48.77806476;9.16920056;2022-10-26T04:33:25;16.50;99.90
2282;DHT22;27486;48.77806476;9.16920056;2022-10-26T04:36:09;16.60;99.90
2282;DHT22;27486;48.77806476;9.16920056;2022-10-26T04:38:53;16.60;99.90
2282;DHT22;27486;48.77806476;9.16920056;2022-10-26T04:41:37;16.60;99.90
2282;DHT22;27486;48.77806476;9.16920056;2022-10-26T04:44:21;16.40;99.90
2282;DHT22;27486;48.77806476;9.16920056;2022-10-26T04:47:05;16.40;99.90
2282;DHT22;27486;48.77806476;9.16920056;2022-10-26T04:49:48;16.40;99.90
2282;DHT22;27486;48.77806476;9.16920056;2022-10-26T04:52:33;16.40;99.90
2282;DHT22;27486;48.77806476;9.16920056;2022-10-26T04:55:17;16.40;99.90
2282;DHT22;27486;48.77806476;9.16920056;2022-10-26T04:58:02;16.40;99.90
2282;DHT22;27486;48.77806476;9.16920056;2022-10-26T05:00:46;16.40;99.90
2282;DHT22;27486;48.77806476;9.16920056;2022-10-26T05:03:30;16.50;99.90
2282;DHT22;27486;48.77806476;9.16920056;2022-10-26T05:06:14;16.40;99.90
2282;DHT22;27486;48.77806476;9.16920056;2022-10-26T05:08:58;16.40;99.90
2282;DHT22;27486;48.77806476;9.16920056;2022-10-26T05:11:42;16.50;99.90
2282;DHT22;27486;48.77806476;9.16920056;2022-10-26T05:14:26;16.50;99.90
2282;DHT22;27486;48.77806476;9.16920056;2022-10-26T05:17:10;16.50;99.90
2282;DHT22;27486;48.77806476;9.16920056;2022-10-26T05:19:54;16.50;99.90
2282;DHT22;27486;48.77806476;9.16920056;2022-10-26T05:22:40;16.60;99.90
2282;DHT22;27486;48.77806476;9.16920056;2022-10-26T05:25:25;16.60;99.90
2282;DHT22;27486;48.77806476;9.16920056;2022-10-26T05:28:11;16.70;99.90
2282;DHT22;27486;48.77806476;9.16920056;2022-10-26T05:30:58;16.70;99.90
2282;DHT22;27486;48.77806476;9.16920056;2022-10-26T05:33:43;16.80;99.90
2282;DHT22;27486;48.77806476;9.16920056;2022-10-26T05:36:26;16.80;99.90
2282;DHT22;27486;48.77806476;9.16920056;2022-10-26T05:39:10;16.90;99.70
2282;DHT22;27486;48.77806476;9.16920056;2022-10-26T05:41:54;17.00;99.60
2282;DHT22;27486;48.77806476;9.16920056;2022-10-26T05:44:38;17.00;99.30
2282;DHT22;27486;48.77806476;9.16920056;2022-10-26T05:47:22;17.00;99.40
2282;DHT22;27486;48.77806476;9.16920056;2022-10-26T05:50:07;17.10;99.20
2282;DHT22;27486;48.77806476;9.16920056;2022-10-26T05:52:51;17.20;99.20
2282;DHT22;27486;48.77806476;9.16920056;2022-10-26T05:55:36;17.20;98.80
2282;DHT22;27486;48.77806476;9.16920056;2022-10-26T05:58:20;17.20;98.80
2282;DHT22;27486;48.77806476;9.16920056;2022-10-26T06:07:21;17.30;98.80
2282;DHT22;27486;48.77806476;9.16920056;2022-10-26T06:10:06;17.40;98.50
2282;DHT22;27486;48.77806476;9.16920056;2022-10-26T06:12:50;17.40;98.20
2282;DHT22;27486;48.77806476;9.16920056;2022-10-26T06:15:49;17.50;98.30
2282;DHT22;27486;48.77806476;9.16920056;2022-10-26T06:19:02;17.50;98.20
2282;DHT22;27486;48.77806476;9.16920056;2022-10-26T06:28:20;17.60;98.10
2282;DHT22;27486;48.77806476;9.16920056;2022-10-26T06:31:06;17.60;98.10
2282;DHT22;27486;48.77806476;9.16920056;2022-10-26T06:33:55;17.60;98.30
2282;DHT22;27486;48.77806476;9.16920056;2022-10-26T06:36:41;17.60;98.40
2282;DHT22;27486;48.77806476;9.16920056;2022-10-26T06:39:28;17.60;98.40
2282;DHT22;27486;48.77806476;9.16920056;2022-10-26T06:42:13;17.70;98.50
2282;DHT22;27486;48.77806476;9.16920056;2022-10-26T06:44:58;17.70;98.50
2282;DHT22;27486;48.77806476;9.16920056;2022-10-26T06:47:56;17.70;98.30
2282;DHT22;27486;48.77806476;9.16920056;2022-10-26T06:50:50;17.70;98.40
2282;DHT22;27486;48.77806476;9.16920056;2022-10-26T06:56:52;17.80;98.30
2282;DHT22;27486;48.77806476;9.16920056;2022-10-26T06:59:52;17.80;98.90
2282;DHT22;27486;48.77806476;9.16920056;2022-10-26T07:02:36;17.80;98.30
2282;DHT22;27486;48.77806476;9.16920056;2022-10-26T07:05:20;17.90;98.50
2282;DHT22;27486;48.77806476;9.16920056;2022-10-26T07:08:04;17.80;98.60
2282;DHT22;27486;48.77806476;9.16920056;2022-10-26T07:10:49;17.80;98.60
2282;DHT22;27486;48.77806476;9.16920056;2022-10-26T07:13:33;17.80;98.50
2282;DHT22;27486;48.77806476;9.16920056;2022-10-26T07:16:17;17.70;98.60
2282;DHT22;27486;48.77806476;9.16920056;2022-10-26T07:19:01;17.60;98.70
2282;DHT22;27486;48.77806476;9.16920056;2022-10-26T07:21:45;17.70;98.90
2282;DHT22;27486;48.77806476;9.16920056;2022-10-26T07:24:29;17.70;98.50
2282;DHT22;27486;48.77806476;9.16920056;2022-10-26T07:27:14;17.90;98.50
2282;DHT22;27486;48.77806476;9.16920056;2022-10-26T07:29:58;17.80;98.30
2282;DHT22;27486;48.77806476;9.16920056;2022-10-26T07:32:42;17.90;98.10
2282;DHT22;27486;48.77806476;9.16920056;2022-10-26T07:35:27;18.10;97.80
2282;DHT22;27486;48.77806476;9.16920056;2022-10-26T07:38:12;18.20;97.60
2282;DHT22;27486;48.77806476;9.16920056;2022-10-26T07:40:56;18.20;97.30
2282;DHT22;27486;48.77806476;9.16920056;2022-10-26T07:43:40;18.40;97.10
2282;DHT22;27486;48.77806476;9.16920056;2022-10-26T07:46:25;18.40;97.10
2282;DHT22;27486;48.77806476;9.16920056;2022-10-26T07:49:08;18.60;96.70
2282;DHT22;27486;48.77806476;9.16920056;2022-10-26T07:51:52;18.60;96.50
2282;DHT22;27486;48.77806476;9.16920056;2022-10-26T07:54:37;18.70;96.30
2282;DHT22;27486;48.77806476;9.16920056;2022-10-26T07:57:21;18.80;96.10
2282;DHT22;27486;48.77806476;9.16920056;2022-10-26T08:00:07;19.00;95.80
2282;DHT22;27486;48.77806476;9.16920056;2022-10-26T08:02:51;19.10;95.50
2282;DHT22;27486;48.77806476;9.16920056;2022-10-26T08:05:35;19.30;95.40
2282;DHT22;27486;48.77806476;9.16920056;2022-10-26T08:08:19;19.40;95.20
2282;DHT22;27486;48.77806476;9.16920056;2022-10-26T08:11:04;19.50;95.20
2282;DHT22;27486;48.77806476;9.16920056;2022-10-26T08:13:51;19.70;94.90
2282;DHT22;27486;48.77806476;9.16920056;2022-10-26T08:16:36;19.70;94.70
2282;DHT22;27486;48.77806476;9.16920056;2022-10-26T08:19:22;19.90;94.40
2282;DHT22;27486;48.77806476;9.16920056;2022-10-26T08:22:06;20.00;94.10
2282;DHT22;27486;48.77806476;9.16920056;2022-10-26T08:24:50;20.00;93.70
2282;DHT22;27486;48.77806476;9.16920056;2022-10-26T08:27:39;20.10;93.70
2282;DHT22;27486;48.77806476;9.16920056;2022-10-26T08:30:23;20.20;93.50
2282;DHT22;27486;48.77806476;9.16920056;2022-10-26T08:33:09;20.30;92.90
2282;DHT22;27486;48.77806476;9.16920056;2022-10-26T08:35:59;20.40;93.00
2282;DHT22;27486;48.77806476;9.16920056;2022-10-26T08:38:43;20.50;92.80
2282;DHT22;27486;48.77806476;9.16920056;2022-10-26T08:41:35;20.50;92.60
2282;DHT22;27486;48.77806476;9.16920056;2022-10-26T08:44:30;20.40;92.50
2282;DHT22;27486;48.77806476;9.16920056;2022-10-26T08:50:11;20.40;92.60
2282;DHT22;27486;48.77806476;9.16920056;2022-10-26T08:53:19;20.50;92.40
2282;DHT22;27486;48.77806476;9.16920056;2022-10-26T08:59:09;20.60;92.20
2282;DHT22;27486;48.77806476;9.16920056;2022-10-26T09:01:55;20.90;92.00
2282;DHT22;27486;48.77806476;9.16920056;2022-10-26T09:04:39;21.10;91.60
2282;DHT22;27486;48.77806476;9.16920056;2022-10-26T09:07:47;21.30;91.30
2282;DHT22;27486;48.77806476;9.16920056;2022-10-26T09:13:49;21.50;90.30
2282;DHT22;27486;48.77806476;9.16920056;2022-10-26T09:19:50;21.60;89.30
2282;DHT22;27486;48.77806476;9.16920056;2022-10-26T09:22:59;21.60;89.50
2282;DHT22;27486;48.77806476;9.16920056;2022-10-26T09:25:50;21.80;89.80
2282;DHT22;27486;48.77806476;9.16920056;2022-10-26T09:28:40;21.80;89.20
2282;DHT22;27486;48.77806476;9.16920056;2022-10-26T09:31:24;21.90;88.40
2282;DHT22;27486;48.77806476;9.16920056;2022-10-26T09:34:23;21.90;88.80
2282;DHT22;27486;48.77806476;9.16920056;2022-10-26T09:37:16;21.80;88.40
2282;DHT22;27486;48.77806476;9.16920056;2022-10-26T09:40:11;21.60;88.20
2282;DHT22;27486;48.77806476;9.16920056;2022-10-26T09:43:11;21.50;89.20
2282;DHT22;27486;48.77806476;9.16920056;2022-10-26T09:45:57;21.40;88.90
2282;DHT22;27486;48.77806476;9.16920056;2022-10-26T09:48:49;21.30;90.40
2282;DHT22;27486;48.77806476;9.16920056;2022-10-26T09:51:38;21.40;90.20
2282;DHT22;27486;48.77806476;9.16920056;2022-10-26T09:54:22;21.60;90.20
2282;DHT22;27486;48.77806476;9.16920056;2022-10-26T09:57:07;21.80;89.70
2282;DHT22;27486;48.77806476;9.16920056;2022-10-26T09:59:52;22.00;88.80
2282;DHT22;27486;48.77806476;9.16920056;2022-10-26T10:02:40;22.40;87.60
2282;DHT22;27486;48.77806476;9.16920056;2022-10-26T10:05:31;22.70;86.50
2282;DHT22;27486;48.77806476;9.16920056;2022-10-26T10:08:25;22.90;85.50
2282;DHT22;27486;48.77806476;9.16920056;2022-10-26T10:11:12;23.00;83.70
2282;DHT22;27486;48.77806476;9.16920056;2022-10-26T10:14:08;23.00;82.30
2282;DHT22;27486;48.77806476;9.16920056;2022-10-26T10:17:18;22.90;82.80
2282;DHT22;27486;48.77806476;9.16920056;2022-10-26T10:20:07;23.10;81.60
2282;DHT22;27486;48.77806476;9.16920056;2022-10-26T10:22:58;23.20;80.70
2282;DHT22;27486;48.77806476;9.16920056;2022-10-26T10:25:43;23.40;79.60
2282;DHT22;27486;48.77806476;9.16920056;2022-10-26T10:28:28;23.20;79.70
2282;DHT22;27486;48.77806476;9.16920056;2022-10-26T10:31:20;23.00;81.20
2282;DHT22;27486;48.77806476;9.16920056;2022-10-26T10:34:15;23.30;80.40
2282;DHT22;27486;48.77806476;9.16920056;2022-10-26T10:37:00;23.60;79.60
2282;DHT22;27486;48.77806476;9.16920056;2022-10-26T10:39:44;23.60;79.20
2282;DHT22;27486;48.77806476;9.16920056;2022-10-26T10:42:33;23.80;79.40
2282;DHT22;27486;48.77806476;9.16920056;2022-10-26T10:45:22;23.70;79.50
2282;DHT22;27486;48.77806476;9.16920056;2022-10-26T10:48:22;23.40;79.50
2282;DHT22;27486;48.77806476;9.16920056;2022-10-26T10:51:08;23.20;78.90
2282;DHT22;27486;48.77806476;9.16920056;2022-10-26T10:53:56;23.20;80.20
2282;DHT22;27486;48.77806476;9.16920056;2022-10-26T10:56:50;23.40;78.60
2282;DHT22;27486;48.77806476;9.16920056;2022-10-26T10:59:52;23.60;77.90
2282;DHT22;27486;48.77806476;9.16920056;2022-10-26T11:05:29;23.60;77.30
2282;DHT22;27486;48.77806476;9.16920056;2022-10-26T11:08:27;23.50;77.10
2282;DHT22;27486;48.77806476;9.16920056;2022-10-26T11:11:15;23.60;77.00
2282;DHT22;27486;48.77806476;9.16920056;2022-10-26T11:17:03;23.50;76.30
2282;DHT22;27486;48.77806476;9.16920056;2022-10-26T11:20:12;23.50;74.80
2282;DHT22;27486;48.77806476;9.16920056;2022-10-26T11:26:17;23.90;74.10
2282;DHT22;27486;48.77806476;9.16920056;2022-10-26T11:29:11;24.20;73.70
2282;DHT22;27486;48.77806476;9.16920056;2022-10-26T11:32:24;24.20;72.20
2282;DHT22;27486;48.77806476;9.16920056;2022-10-26T11:35:34;23.80;72.30
2282;DHT22;27486;48.77806476;9.16920056;2022-10-26T11:38:28;23.70;72.90
2282;DHT22;27486;48.77806476;9.16920056;2022-10-26T11:41:28;23.70;73.10
2282;DHT22;27486;48.77806476;9.16920056;2022-10-26T11:44:34;23.80;72.90
2282;DHT22;27486;48.77806476;9.16920056;2022-10-26T11:47:29;24.00;72.40
2282;DHT22;27486;48.77806476;9.16920056;2022-10-26T11:50:26;24.30;71.80
2282;DHT22;27486;48.77806476;9.16920056;2022-10-26T11:53:16;24.60;71.30
2282;DHT22;27486;48.77806476;9.16920056;2022-10-26T11:56:02;24.70;70.50
2282;DHT22;27486;48.77806476;9.16920056;2022-10-26T11:58:48;24.80;70.30
2282;DHT22;27486;48.77806476;9.16920056;2022-10-26T12:01:33;24.90;69.90
2282;DHT22;27486;48.77806476;9.16920056;2022-10-26T12:04:22;24.90;69.40
2282;DHT22;27486;48.77806476;9.16920056;2022-10-26T12:07:15;24.90;69.60
2282;DHT22;27486;48.77806476;9.16920056;2022-10-26T12:10:02;25.10;69.10
2282;DHT22;27486;48.77806476;9.16920056;2022-10-26T12:12:53;25.10;68.90
2282;DHT22;27486;48.77806476;9.16920056;2022-10-26T12:18:44;25.50;66.20
2282;DHT22;27486;48.77806476;9.16920056;2022-10-26T12:21:31;25.70;65.10
2282;DHT22;27486;48.77806476;9.16920056;2022-10-26T12:27:34;25.80;65.00
2282;DHT22;27486;48.77806476;9.16920056;2022-10-26T12:30:33;25.50;64.50
2282;DHT22;27486;48.77806476;9.16920056;2022-10-26T12:33:29;25.40;64.80
2282;DHT22;27486;48.77806476;9.16920056;2022-10-26T12:39:36;25.10;65.60
2282;DHT22;27486;48.77806476;9.16920056;2022-10-26T12:45:17;25.50;64.80
2282;DHT22;27486;48.77806476;9.16920056;2022-10-26T12:48:03;25.80;63.40
2282;DHT22;27486;48.77806476;9.16920056;2022-10-26T12:50:48;26.10;62.30
2282;DHT22;27486;48.77806476;9.16920056;2022-10-26T12:53:33;26.30;61.90
2282;DHT22;27486;48.77806476;9.16920056;2022-10-26T12:56:19;26.60;61.20
2282;DHT22;27486;48.77806476;9.16920056;2022-10-26T13:02:36;26.40;59.50
2282;DHT22;27486;48.77806476;9.16920056;2022-10-26T13:08:52;26.30;59.80
2282;DHT22;27486;48.77806476;9.16920056;2022-10-26T13:11:43;26.00;58.80
2282;DHT22;27486;48.77806476;9.16920056;2022-10-26T13:14:35;25.60;59.60
2282;DHT22;27486;48.77806476;9.16920056;2022-10-26T13:17:29;25.50;60.20
2282;DHT22;27486;48.77806476;9.16920056;2022-10-26T13:20:16;25.20;61.10
2282;DHT22;27486;48.77806476;9.16920056;2022-10-26T13:23:02;25.00;60.60
2282;DHT22;27486;48.77806476;9.16920056;2022-10-26T13:26:18;24.80;61.40
2282;DHT22;27486;48.77806476;9.16920056;2022-10-26T13:29:03;24.70;62.10
2282;DHT22;27486;48.77806476;9.16920056;2022-10-26T13:34:32;24.20;63.00
2282;DHT22;27486;48.77806476;9.16920056;2022-10-26T13:37:25;23.90;63.80
2282;DHT22;27486;48.77806476;9.16920056;2022-10-26T13:40:15;23.80;64.20
2282;DHT22;27486;48.77806476;9.16920056;2022-10-26T13:43:05;23.80;65.00
2282;DHT22;27486;48.77806476;9.16920056;2022-10-26T13:46:01;23.70;65.00
2282;DHT22;27486;48.77806476;9.16920056;2022-10-26T13:48:46;23.70;65.00
2282;DHT22;27486;48.77806476;9.16920056;2022-10-26T13:51:40;23.70;65.10
2282;DHT22;27486;48.77806476;9.16920056;2022-10-26T13:54:38;23.70;64.80
2282;DHT22;27486;48.77806476;9.16920056;2022-10-26T13:57:43;23.70;65.00
2282;DHT22;27486;48.77806476;9.16920056;2022-10-26T14:00:27;23.70;64.20
2282;DHT22;27486;48.77806476;9.16920056;2022-10-26T14:03:13;23.80;64.40
2282;DHT22;27486;48.77806476;9.16920056;2022-10-26T14:05:57;23.90;64.50
2282;DHT22;27486;48.77806476;9.16920056;2022-10-26T14:08:43;23.80;63.60
2282;DHT22;27486;48.77806476;9.16920056;2022-10-26T14:11:34;23.70;63.10
2282;DHT22;27486;48.77806476;9.16920056;2022-10-26T14:17:21;23.40;63.40
2282;DHT22;27486;48.77806476;9.16920056;2022-10-26T14:20:20;23.40;63.30
2282;DHT22;27486;48.77806476;9.16920056;2022-10-26T14:23:04;23.50;63.50
2282;DHT22;27486;48.77806476;9.16920056;2022-10-26T14:25:52;23.60;63.80
2282;DHT22;27486;48.77806476;9.16920056;2022-10-26T14:28:44;23.70;64.00
2282;DHT22;27486;48.77806476;9.16920056;2022-10-26T14:31:32;23.80;63.50
2282;DHT22;27486;48.77806476;9.16920056;2022-10-26T14:34:17;23.80;63.40
2282;DHT22;27486;48.77806476;9.16920056;2022-10-26T14:37:02;23.80;63.30
2282;DHT22;27486;48.77806476;9.16920056;2022-10-26T14:39:49;23.80;63.50
2282;DHT22;27486;48.77806476;9.16920056;2022-10-26T14:42:37;24.00;63.20
2282;DHT22;27486;48.77806476;9.16920056;2022-10-26T14:45:32;24.00;63.50
2282;DHT22;27486;48.77806476;9.16920056;2022-10-26T14:48:29;23.90;63.70
2282;DHT22;27486;48.77806476;9.16920056;2022-10-26T14:51:18;23.90;63.40
2282;DHT22;27486;48.77806476;9.16920056;2022-10-26T14:54:04;23.80;63.40
2282;DHT22;27486;48.77806476;9.16920056;2022-10-26T14:56:48;23.70;63.60
2282;DHT22;27486;48.77806476;9.16920056;2022-10-26T14:59:33;23.80;63.60
2282;DHT22;27486;48.77806476;9.16920056;2022-10-26T15:02:21;23.80;63.50
2282;DHT22;27486;48.77806476;9.16920056;2022-10-26T15:05:27;24.00;63.60
2282;DHT22;27486;48.77806476;9.16920056;2022-10-26T15:08:44;24.00;63.20
2282;DHT22;27486;48.77806476;9.16920056;2022-10-26T15:11:32;23.80;63.60
2282;DHT22;27486;48.77806476;9.16920056;2022-10-26T15:14:16;23.80;63.80
2282;DHT22;27486;48.77806476;9.16920056;2022-10-26T15:17:01;23.70;63.80
2282;DHT22;27486;48.77806476;9.16920056;2022-10-26T15:19:45;23.50;64.00
2282;DHT22;27486;48.77806476;9.16920056;2022-10-26T15:22:30;23.40;64.70
2282;DHT22;27486;48.77806476;9.16920056;2022-10-26T15:25:20;23.30;65.40
2282;DHT22;27486;48.77806476;9.16920056;2022-10-26T15:28:41;23.10;65.60
2282;DHT22;27486;48.77806476;9.16920056;2022-10-26T15:31:29;23.20;66.10
2282;DHT22;27486;48.77806476;9.16920056;2022-10-26T15:34:14;23.60;65.80
2282;DHT22;27486;48.77806476;9.16920056;2022-10-26T15:37:07;24.00;64.80
2282;DHT22;27486;48.77806476;9.16920056;2022-10-26T15:39:51;24.30;63.70
2282;DHT22;27486;48.77806476;9.16920056;2022-10-26T15:42:37;24.60;62.70
2282;DHT22;27486;48.77806476;9.16920056;2022-10-26T15:45:27;24.70;62.40
2282;DHT22;27486;48.77806476;9.16920056;2022-10-26T15:48:18;24.70;62.00
2282;DHT22;27486;48.77806476;9.16920056;2022-10-26T15:51:12;24.50;62.20
2282;DHT22;27486;48.77806476;9.16920056;2022-10-26T15:54:03;24.30;62.90
2282;DHT22;27486;48.77806476;9.16920056;2022-10-26T15:56:47;24.00;63.60
2282;DHT22;27486;48.77806476;9.16920056;2022-10-26T15:59:32;23.70;64.50
2282;DHT22;27486;48.77806476;9.16920056;2022-10-26T16:02:16;23.50;65.30
2282;DHT22;27486;48.77806476;9.16920056;2022-10-26T16:05:00;23.30;65.80
2282;DHT22;27486;48.77806476;9.16920056;2022-10-26T16:07:45;23.00;66.60
2282;DHT22;27486;48.77806476;9.16920056;2022-10-26T16:10:31;22.80;68.40
2282;DHT22;27486;48.77806476;9.16920056;2022-10-26T16:13:16;22.60;69.20
2282;DHT22;27486;48.77806476;9.16920056;2022-10-26T16:16:00;22.40;70.10
2282;DHT22;27486;48.77806476;9.16920056;2022-10-26T16:18:45;22.10;71.10
2282;DHT22;27486;48.77806476;9.16920056;2022-10-26T16:21:31;21.90;72.10
2282;DHT22;27486;48.77806476;9.16920056;2022-10-26T16:24:15;21.70;73.30
2282;DHT22;27486;48.77806476;9.16920056;2022-10-26T16:26:59;21.60;74.00
2282;DHT22;27486;48.77806476;9.16920056;2022-10-26T16:29:43;21.30;75.00
2282;DHT22;27486;48.77806476;9.16920056;2022-10-26T16:32:27;21.20;76.00
2282;DHT22;27486;48.77806476;9.16920056;2022-10-26T16:35:11;21.00;77.10
2282;DHT22;27486;48.77806476;9.16920056;2022-10-26T16:37:56;20.90;77.50
2282;DHT22;27486;48.77806476;9.16920056;2022-10-26T16:40:40;20.70;78.80
2282;DHT22;27486;48.77806476;9.16920056;2022-10-26T16:43:26;20.50;79.80
2282;DHT22;27486;48.77806476;9.16920056;2022-10-26T16:46:18;20.40;81.10
2282;DHT22;27486;48.77806476;9.16920056;2022-10-26T16:49:02;20.30;82.00
2282;DHT22;27486;48.77806476;9.16920056;2022-10-26T16:51:46;20.10;82.40
2282;DHT22;27486;48.77806476;9.16920056;2022-10-26T16:54:30;20.10;82.90
2282;DHT22;27486;48.77806476;9.16920056;2022-10-26T16:57:14;19.90;83.90
2282;DHT22;27486;48.77806476;9.16920056;2022-10-26T16:59:58;19.80;85.30
2282;DHT22;27486;48.77806476;9.16920056;2022-10-26T17:02:42;19.70;86.70